sensor_id;sensor_type;location;lat;lon;timestamp;pressure;altitude;pressure_sealevel;temperature;humidity
44075;BME280;60448;44.956;7.660;2022-12-17T00:00:00;98180;;;12.7;59.9
44075;BME280;60448;44.956;7.660;2022-12-17T00:05:00;98190;;;12.7;59.8
44075;BME280;60448;44.956;7.660;2022-12-17T00:10:00;98190;;;12.7;59.8
44075;BME280;60448;44.956;7.660;2022-12-17T00:15:00;98190;;;12.7;59.8
44075;BME280;60448;44.956;7.660;2022-12-17T00:20:00;98220;;;12.7;59.6
44075;BME280;60448;44.956;7.660;2022-12-17T00:25:00;98220;;;12.7;59.6
44075;BME280;60448;44.956;7.660;2022-12-17T00:30:00;98220;;;12.7;59.6
44075;BME280;60448;44.956;7.660;2022-12-17T00:35:00;98220;;;12.7;59.5
44075;BME280;60448;44.956;7.660;2022-12-17T00:40:00;98220;;;12.7;59.5
44075;BME280;60448;44.956;7.660;2022-12-17T00:45:00;98220;;;12.7;59.5
44075;BME280;60448;44.956;7.660;2022-12-17T00:50:00;98240;;;12.7;59.4
44075;BME280;60448;44.956;7.660;2022-12-17T00:55:00;98230;;;12.7;59.4
44075;BME280;60448;44.956;7.660;2022-12-17T01:00:00;98230;;;12.7;59.4
44075;BME280;60448;44.956;7.660;2022-12-17T01:05:00;98250;;;12.7;59.3
44075;BME280;60448;44.956;7.660;2022-12-17T01:10:01;98250;;;12.7;59.3
44075;BME280;60448;44.956;7.660;2022-12-17T01:15:01;98250;;;12.7;59.3
44075;BME280;60448;44.956;7.660;2022-12-17T01:20:00;98250;;;12.8;59.0
44075;BME280;60448;44.956;7.660;2022-12-17T01:25:02;98250;;;12.7;59.1
44075;BME280;60448;44.956;7.660;2022-12-17T01:30:00;98250;;;12.7;59.1
44075;BME280;60448;44.956;7.660;2022-12-17T01:35:00;98250;;;12.7;59.1
44075;BME280;60448;44.956;7.660;2022-12-17T01:40:00;98280;;;12.7;59.1
44075;BME280;60448;44.956;7.660;2022-12-17T01:45:02;98280;;;12.7;59.1
44075;BME280;60448;44.956;7.660;2022-12-17T01:50:02;98280;;;12.7;59.1
44075;BME280;60448;44.956;7.660;2022-12-17T01:55:32;98290;;;12.7;58.9
44075;BME280;60448;44.956;7.660;2022-12-17T02:00:04;98290;;;12.7;58.9
44075;BME280;60448;44.956;7.660;2022-12-17T02:05:00;98290;;;12.7;58.9
44075;BME280;60448;44.956;7.660;2022-12-17T02:15:02;98320;;;12.6;58.9
44075;BME280;60448;44.956;7.660;2022-12-17T02:20:08;98320;;;12.6;58.9
44075;BME280;60448;44.956;7.660;2022-12-17T02:25:03;98320;;;12.6;58.7
44075;BME280;60448;44.956;7.660;2022-12-17T02:30:03;98320;;;12.6;58.8
44075;BME280;60448;44.956;7.660;2022-12-17T02:35:01;98320;;;12.6;58.8
44075;BME280;60448;44.956;7.660;2022-12-17T02:40:01;98320;;;12.7;58.7
44075;BME280;60448;44.956;7.660;2022-12-17T02:45:00;98320;;;12.6;58.7
44075;BME280;60448;44.956;7.660;2022-12-17T02:50:00;98320;;;12.6;58.7
44075;BME280;60448;44.956;7.660;2022-12-17T02:55:00;98330;;;12.6;58.6
44075;BME280;60448;44.956;7.660;2022-12-17T03:00:00;98330;;;12.6;58.6
44075;BME280;60448;44.956;7.660;2022-12-17T03:05:00;98330;;;12.6;58.6
44075;BME280;60448;44.956;7.660;2022-12-17T03:10:00;98330;;;12.6;58.6
44075;BME280;60448;44.956;7.660;2022-12-17T03:15:01;98370;;;12.6;58.5
44075;BME280;60448;44.956;7.660;2022-12-17T03:25:00;98370;;;12.6;58.5
44075;BME280;60448;44.956;7.660;2022-12-17T03:30:00;98370;;;12.6;58.4
44075;BME280;60448;44.956;7.660;2022-12-17T03:35:00;98370;;;12.6;58.4
44075;BME280;60448;44.956;7.660;2022-12-17T03:40:00;98370;;;12.6;58.4
44075;BME280;60448;44.956;7.660;2022-12-17T03:45:00;98380;;;12.5;58.3
44075;BME280;60448;44.956;7.660;2022-12-17T03:50:00;98380;;;12.5;58.3
44075;BME280;60448;44.956;7.660;2022-12-17T03:55:01;98380;;;12.5;58.3
44075;BME280;60448;44.956;7.660;2022-12-17T04:00:08;98380;;;12.6;58.2
44075;BME280;60448;44.956;7.660;2022-12-17T04:05:31;98380;;;12.5;58.2
44075;BME280;60448;44.956;7.660;2022-12-17T04:10:05;98380;;;12.5;58.2
44075;BME280;60448;44.956;7.660;2022-12-17T04:15:01;98380;;;12.5;58.2
44075;BME280;60448;44.956;7.660;2022-12-17T04:20:00;98380;;;12.5;58.2
44075;BME280;60448;44.956;7.660;2022-12-17T04:25:03;98380;;;12.5;58.2
44075;BME280;60448;44.956;7.660;2022-12-17T04:30:00;98380;;;12.5;58.2
44075;BME280;60448;44.956;7.660;2022-12-17T04:35:10;98380;;;12.5;58.2
44075;BME280;60448;44.956;7.660;2022-12-17T04:40:01;98380;;;12.5;58.2
44075;BME280;60448;44.956;7.660;2022-12-17T04:45:00;98380;;;12.5;58.2
44075;BME280;60448;44.956;7.660;2022-12-17T04:50:01;98380;;;12.5;58.2
44075;BME280;60448;44.956;7.660;2022-12-17T04:55:01;98380;;;12.5;58.2
44075;BME280;60448;44.956;7.660;2022-12-17T05:00:00;98380;;;12.5;58.2
44075;BME280;60448;44.956;7.660;2022-12-17T05:05:00;98380;;;12.5;58.2
44075;BME280;60448;44.956;7.660;2022-12-17T05:10:01;98380;;;12.5;58.2
44075;BME280;60448;44.956;7.660;2022-12-17T05:15:00;98380;;;12.5;58.2
44075;BME280;60448;44.956;7.660;2022-12-17T05:20:00;98380;;;12.5;58.2
44075;BME280;60448;44.956;7.660;2022-12-17T05:25:05;98380;;;12.5;58.2
44075;BME280;60448;44.956;7.660;2022-12-17T05:30:00;98380;;;12.5;58.2
44075;BME280;60448;44.956;7.660;2022-12-17T05:35:00;98380;;;12.5;58.2
44075;BME280;60448;44.956;7.660;2022-12-17T05:40:00;98380;;;12.5;58.2
44075;BME280;60448;44.956;7.660;2022-12-17T05:45:00;98380;;;12.5;58.2
44075;BME280;60448;44.956;7.660;2022-12-17T05:50:00;98380;;;12.5;58.2
44075;BME280;60448;44.956;7.660;2022-12-17T05:55:00;98380;;;12.5;58.2
44075;BME280;60448;44.956;7.660;2022-12-17T06:00:00;98380;;;12.5;58.2
44075;BME280;60448;44.956;7.660;2022-12-17T06:05:00;98380;;;12.5;58.2
44075;BME280;60448;44.956;7.660;2022-12-17T06:10:01;98380;;;12.5;58.2
44075;BME280;60448;44.956;7.660;2022-12-17T06:15:00;98380;;;12.5;58.2
44075;BME280;60448;44.956;7.660;2022-12-17T06:20:02;98380;;;12.5;58.2
44075;BME280;60448;44.956;7.660;2022-12-17T06:25:00;98380;;;12.5;58.2
44075;BME280;60448;44.956;7.660;2022-12-17T06:30:00;98380;;;12.5;58.2
44075;BME280;60448;44.956;7.660;2022-12-17T06:35:00;98380;;;12.5;58.2
44075;BME280;60448;44.956;7.660;2022-12-17T06:40:00;98380;;;12.5;58.2
44075;BME280;60448;44.956;7.660;2022-12-17T06:45:00;98380;;;12.5;58.2
44075;BME280;60448;44.956;7.660;2022-12-17T06:50:00;98380;;;12.5;58.2
44075;BME280;60448;44.956;7.660;2022-12-17T06:55:00;98380;;;12.5;58.2
44075;BME280;60448;44.956;7.660;2022-12-17T07:00:00;98380;;;12.5;58.2
44075;BME280;60448;44.956;7.660;2022-12-17T07:05:00;98380;;;12.5;58.2
44075;BME280;60448;44.956;7.660;2022-12-17T07:10:01;98380;;;12.5;58.2
44075;BME280;60448;44.956;7.660;2022-12-17T07:15:00;98380;;;12.5;58.2
44075;BME280;60448;44.956;7.660;2022-12-17T07:20:00;98380;;;12.5;58.2
44075;BME280;60448;44.956;7.660;2022-12-17T07:25:01;98380;;;12.5;58.2
44075;BME280;60448;44.956;7.660;2022-12-17T07:30:00;98380;;;12.5;58.2
44075;BME280;60448;44.956;7.660;2022-12-17T07:35:00;98380;;;12.5;58.2
44075;BME280;60448;44.956;7.660;2022-12-17T07:40:00;98380;;;12.5;58.2
44075;BME280;60448;44.956;7.660;2022-12-17T07:45:00;98380;;;12.5;58.2
44075;BME280;60448;44.956;7.660;2022-12-17T07:50:00;98380;;;12.5;58.2
44075;BME280;60448;44.956;7.660;2022-12-17T07:55:02;98380;;;12.5;58.2
44075;BME280;60448;44.956;7.660;2022-12-17T08:00:00;98380;;;12.5;58.2
44075;BME280;60448;44.956;7.660;2022-12-17T08:05:00;98380;;;12.5;58.2
44075;BME280;60448;44.956;7.660;2022-12-17T08:10:00;98380;;;12.5;58.2
44075;BME280;60448;44.956;7.660;2022-12-17T08:15:00;98380;;;12.5;58.2
44075;BME280;60448;44.956;7.660;2022-12-17T08:20:00;98380;;;12.5;58.2
44075;BME280;60448;44.956;7.660;2022-12-17T08:25:00;98380;;;12.5;58.2
44075;BME280;60448;44.956;7.660;2022-12-17T08:30:02;98380;;;12.5;58.2
44075;BME280;60448;44.956;7.660;2022-12-17T08:35:00;98380;;;12.5;58.2
44075;BME280;60448;44.956;7.660;2022-12-17T08:40:00;98380;;;12.5;58.2
44075;BME280;60448;44.956;7.660;2022-12-17T08:45:00;98380;;;12.5;58.2
44075;BME280;60448;44.956;7.660;2022-12-17T08:50:00;98380;;;12.5;58.2
44075;BME280;60448;44.956;7.660;2022-12-17T08:55:00;98380;;;12.5;58.2
44075;BME280;60448;44.956;7.660;2022-12-17T09:00:00;98380;;;12.5;58.2
44075;BME280;60448;44.956;7.660;2022-12-17T09:05:00;98380;;;12.5;58.2
44075;BME280;60448;44.956;7.660;2022-12-17T09:10:00;98380;;;12.5;58.2
44075;BME280;60448;44.956;7.660;2022-12-17T09:15:00;98380;;;12.5;58.2
44075;BME280;60448;44.956;7.660;2022-12-17T09:20:02;98380;;;12.5;58.2
44075;BME280;60448;44.956;7.660;2022-12-17T09:25:00;98380;;;12.5;58.2
44075;BME280;60448;44.956;7.660;2022-12-17T09:30:05;98380;;;12.5;58.2
44075;BME280;60448;44.956;7.660;2022-12-17T09:35:00;98380;;;12.5;58.2
44075;BME280;60448;44.956;7.660;2022-12-17T09:40:02;98380;;;12.5;58.2
44075;BME280;60448;44.956;7.660;2022-12-17T09:45:06;98380;;;12.5;58.2
44075;BME280;60448;44.956;7.660;2022-12-17T09:50:00;98380;;;12.5;58.2
44075;BME280;60448;44.956;7.660;2022-12-17T09:55:00;98380;;;12.5;58.2
44075;BME280;60448;44.956;7.660;2022-12-17T10:00:05;98380;;;12.5;58.2
44075;BME280;60448;44.956;7.660;2022-12-17T10:05:00;98380;;;12.5;58.2
44075;BME280;60448;44.956;7.660;2022-12-17T10:10:05;98380;;;12.5;58.2
44075;BME280;60448;44.956;7.660;2022-12-17T10:15:00;98380;;;12.5;58.2
44075;BME280;60448;44.956;7.660;2022-12-17T10:20:02;98380;;;12.5;58.2
44075;BME280;60448;44.956;7.660;2022-12-17T10:25:02;98380;;;12.5;58.2
44075;BME280;60448;44.956;7.660;2022-12-17T10:30:02;98380;;;12.5;58.2
44075;BME280;60448;44.956;7.660;2022-12-17T10:35:11;98380;;;12.5;58.2
44075;BME280;60448;44.956;7.660;2022-12-17T10:40:00;98380;;;12.5;58.2
44075;BME280;60448;44.956;7.660;2022-12-17T10:45:01;98380;;;12.5;58.2
44075;BME280;60448;44.956;7.660;2022-12-17T10:50:10;98380;;;12.5;58.2
44075;BME280;60448;44.956;7.660;2022-12-17T10:55:01;98380;;;12.5;58.2
44075;BME280;60448;44.956;7.660;2022-12-17T11:00:01;98380;;;12.5;58.2
44075;BME280;60448;44.956;7.660;2022-12-17T11:05:01;98380;;;12.5;58.2
44075;BME280;60448;44.956;7.660;2022-12-17T11:10:00;98380;;;12.5;58.2
44075;BME280;60448;44.956;7.660;2022-12-17T11:15:03;98380;;;12.5;58.2
44075;BME280;60448;44.956;7.660;2022-12-17T11:20:01;98380;;;12.5;58.2
44075;BME280;60448;44.956;7.660;2022-12-17T11:25:04;98380;;;12.5;58.2
44075;BME280;60448;44.956;7.660;2022-12-17T11:30:00;98380;;;12.5;58.2
44075;BME280;60448;44.956;7.660;2022-12-17T11:45:03;98380;;;12.5;58.2
44075;BME280;60448;44.956;7.660;2022-12-17T11:55:07;98380;;;12.5;58.2
44075;BME280;60448;44.956;7.660;2022-12-17T12:00:02;98380;;;12.5;58.2
44075;BME280;60448;44.956;7.660;2022-12-17T12:05:07;98380;;;12.5;58.2
44075;BME280;60448;44.956;7.660;2022-12-17T12:10:03;98380;;;12.5;58.2
44075;BME280;60448;44.956;7.660;2022-12-17T12:15:03;98380;;;12.5;58.2
44075;BME280;60448;44.956;7.660;2022-12-17T12:20:03;98380;;;12.5;58.2
44075;BME280;60448;44.956;7.660;2022-12-17T12:30:09;98380;;;12.5;58.2
44075;BME280;60448;44.956;7.660;2022-12-17T12:35:01;98380;;;12.5;58.2
44075;BME280;60448;44.956;7.660;2022-12-17T12:45:04;98380;;;12.5;58.2
44075;BME280;60448;44.956;7.660;2022-12-17T12:50:04;98380;;;12.5;58.2
44075;BME280;60448;44.956;7.660;2022-12-17T12:55:00;98380;;;12.5;58.2
44075;BME280;60448;44.956;7.660;2022-12-17T13:00:00;98380;;;12.5;58.2
44075;BME280;60448;44.956;7.660;2022-12-17T13:05:00;98380;;;12.5;58.2
44075;BME280;60448;44.956;7.660;2022-12-17T13:10:00;98380;;;12.5;58.2
44075;BME280;60448;44.956;7.660;2022-12-17T13:15:08;98380;;;12.5;58.2
44075;BME280;60448;44.956;7.660;2022-12-17T13:20:02;98380;;;12.5;58.2
44075;BME280;60448;44.956;7.660;2022-12-17T13:25:14;98380;;;12.5;58.2
44075;BME280;60448;44.956;7.660;2022-12-17T13:40:03;98380;;;12.5;58.2
44075;BME280;60448;44.956;7.660;2022-12-17T13:45:00;98380;;;12.5;58.2
44075;BME280;60448;44.956;7.660;2022-12-17T13:50:03;98380;;;12.5;58.2
44075;BME280;60448;44.956;7.660;2022-12-17T13:55:08;98380;;;12.5;58.2
44075;BME280;60448;44.956;7.660;2022-12-17T14:00:00;98380;;;12.5;58.2
44075;BME280;60448;44.956;7.660;2022-12-17T14:05:01;98380;;;12.5;58.2
44075;BME280;60448;44.956;7.660;2022-12-17T14:10:01;98380;;;12.5;58.2
44075;BME280;60448;44.956;7.660;2022-12-17T14:15:02;98380;;;12.5;58.2
44075;BME280;60448;44.956;7.660;2022-12-17T14:20:02;98380;;;12.5;58.2
44075;BME280;60448;44.956;7.660;2022-12-17T14:25:00;98380;;;12.5;58.2
44075;BME280;60448;44.956;7.660;2022-12-17T14:30:00;98380;;;12.5;58.2
44075;BME280;60448;44.956;7.660;2022-12-17T14:35:00;98380;;;12.5;58.2
44075;BME280;60448;44.956;7.660;2022-12-17T14:40:02;98380;;;12.5;58.2
44075;BME280;60448;44.956;7.660;2022-12-17T14:45:03;98380;;;12.5;58.2
44075;BME280;60448;44.956;7.660;2022-12-17T14:50:01;98380;;;12.5;58.2
44075;BME280;60448;44.956;7.660;2022-12-17T14:55:00;98380;;;12.5;58.2
44075;BME280;60448;44.956;7.660;2022-12-17T15:00:00;98380;;;12.5;58.2
44075;BME280;60448;44.956;7.660;2022-12-17T15:05:00;98380;;;12.5;58.2
44075;BME280;60448;44.956;7.660;2022-12-17T15:10:00;98380;;;12.5;58.2
44075;BME280;60448;44.956;7.660;2022-12-17T15:15:00;98380;;;12.5;58.2
44075;BME280;60448;44.956;7.660;2022-12-17T15:20:00;98380;;;12.5;58.2
44075;BME280;60448;44.956;7.660;2022-12-17T15:25:01;99070;;;12.5;61.0
44075;BME280;60448;44.956;7.660;2022-12-17T15:30:00;99070;;;12.5;61.0
44075;BME280;60448;44.956;7.660;2022-12-17T15:35:00;99070;;;12.5;61.0
44075;BME280;60448;44.956;7.660;2022-12-17T15:40:00;99090;;;12.9;60.6
44075;BME280;60448;44.956;7.660;2022-12-17T15:45:00;99090;;;12.9;60.6
44075;BME280;60448;44.956;7.660;2022-12-17T15:50:00;99090;;;12.9;60.6
44075;BME280;60448;44.956;7.660;2022-12-17T15:55:00;99120;;;13.1;60.4
44075;BME280;60448;44.956;7.660;2022-12-17T16:00:00;99140;;;13.1;60.5
44075;BME280;60448;44.956;7.660;2022-12-17T16:05:00;99150;;;13.1;60.4
44075;BME280;60448;44.956;7.660;2022-12-17T16:10:00;99160;;;13.1;60.4
44075;BME280;60448;44.956;7.660;2022-12-17T16:15:00;99170;;;13.1;60.3
44075;BME280;60448;44.956;7.660;2022-12-17T16:20:00;99170;;;13.1;60.3
44075;BME280;60448;44.956;7.660;2022-12-17T16:25:00;99170;;;13.1;60.3
44075;BME280;60448;44.956;7.660;2022-12-17T16:30:02;99200;;;13.0;60.4
44075;BME280;60448;44.956;7.660;2022-12-17T16:35:00;99200;;;13.0;60.4
44075;BME280;60448;44.956;7.660;2022-12-17T16:40:00;99200;;;13.0;60.4
44075;BME280;60448;44.956;7.660;2022-12-17T16:45:00;99220;;;13.0;60.7
44075;BME280;60448;44.956;7.660;2022-12-17T16:50:00;99220;;;12.9;60.7
44075;BME280;60448;44.956;7.660;2022-12-17T16:55:00;99220;;;12.9;60.7
44075;BME280;60448;44.956;7.660;2022-12-17T17:00:00;99220;;;12.9;60.7
44075;BME280;60448;44.956;7.660;2022-12-17T17:05:00;99240;;;12.9;60.8
44075;BME280;60448;44.956;7.660;2022-12-17T17:10:00;99240;;;12.9;60.8
44075;BME280;60448;44.956;7.660;2022-12-17T17:15:00;99240;;;12.9;60.8
44075;BME280;60448;44.956;7.660;2022-12-17T17:20:00;99250;;;12.9;60.9
44075;BME280;60448;44.956;7.660;2022-12-17T17:25:01;99250;;;12.9;60.9
44075;BME280;60448;44.956;7.660;2022-12-17T17:30:00;99250;;;12.9;60.9
44075;BME280;60448;44.956;7.660;2022-12-17T17:35:00;99290;;;12.9;61.0
44075;BME280;60448;44.956;7.660;2022-12-17T17:40:00;99290;;;12.9;61.0
44075;BME280;60448;44.956;7.660;2022-12-17T17:45:00;99290;;;12.9;61.0
44075;BME280;60448;44.956;7.660;2022-12-17T17:50:00;99330;;;12.8;61.0
44075;BME280;60448;44.956;7.660;2022-12-17T17:55:00;99330;;;12.8;61.0
44075;BME280;60448;44.956;7.660;2022-12-17T18:00:00;99330;;;12.8;61.0
44075;BME280;60448;44.956;7.660;2022-12-17T18:05:00;99350;;;12.8;61.0
44075;BME280;60448;44.956;7.660;2022-12-17T18:10:00;99350;;;12.8;61.0
44075;BME280;60448;44.956;7.660;2022-12-17T18:15:00;99350;;;12.8;61.0
44075;BME280;60448;44.956;7.660;2022-12-17T18:20:00;99380;;;12.8;60.9
44075;BME280;60448;44.956;7.660;2022-12-17T18:25:00;99380;;;12.8;60.9
44075;BME280;60448;44.956;7.660;2022-12-17T18:30:00;99380;;;12.8;60.9
44075;BME280;60448;44.956;7.660;2022-12-17T18:35:00;99400;;;12.9;60.9
44075;BME280;60448;44.956;7.660;2022-12-17T18:40:00;99410;;;12.8;60.9
44075;BME280;60448;44.956;7.660;2022-12-17T18:45:02;99410;;;12.8;60.9
44075;BME280;60448;44.956;7.660;2022-12-17T18:50:01;99410;;;12.8;60.9
44075;BME280;60448;44.956;7.660;2022-12-17T18:55:00;99430;;;12.8;60.9
44075;BME280;60448;44.956;7.660;2022-12-17T19:00:00;99430;;;12.8;60.9
44075;BME280;60448;44.956;7.660;2022-12-17T19:05:00;99430;;;12.8;60.9
44075;BME280;60448;44.956;7.660;2022-12-17T19:10:00;99450;;;12.8;60.9
44075;BME280;60448;44.956;7.660;2022-12-17T19:15:00;99450;;;12.8;60.9
44075;BME280;60448;44.956;7.660;2022-12-17T19:20:00;99450;;;12.8;60.9
44075;BME280;60448;44.956;7.660;2022-12-17T19:25:04;99480;;;12.8;60.9
44075;BME280;60448;44.956;7.660;2022-12-17T19:30:00;99480;;;12.8;60.9
44075;BME280;60448;44.956;7.660;2022-12-17T19:35:00;99480;;;12.8;60.9
44075;BME280;60448;44.956;7.660;2022-12-17T19:40:00;99510;;;12.8;60.9
44075;BME280;60448;44.956;7.660;2022-12-17T19:45:00;99510;;;12.8;60.9
44075;BME280;60448;44.956;7.660;2022-12-17T19:50:00;99510;;;12.8;60.9
44075;BME280;60448;44.956;7.660;2022-12-17T19:55:00;99530;;;12.9;60.7
44075;BME280;60448;44.956;7.660;2022-12-17T20:00:00;99530;;;12.8;60.8
44075;BME280;60448;44.956;7.660;2022-12-17T20:05:00;99530;;;12.8;60.8
44075;BME280;60448;44.956;7.660;2022-12-17T20:10:00;99530;;;12.8;60.8
44075;BME280;60448;44.956;7.660;2022-12-17T20:15:00;99560;;;12.8;60.8
44075;BME280;60448;44.956;7.660;2022-12-17T20:20:00;99560;;;12.8;60.8
44075;BME280;60448;44.956;7.660;2022-12-17T20:25:00;99560;;;12.8;60.8
44075;BME280;60448;44.956;7.660;2022-12-17T20:30:00;99600;;;12.8;60.8
44075;BME280;60448;44.956;7.660;2022-12-17T20:35:00;99600;;;12.8;60.8
44075;BME280;60448;44.956;7.660;2022-12-17T20:40:00;99600;;;12.8;60.8
44075;BME280;60448;44.956;7.660;2022-12-17T20:45:00;99610;;;12.7;60.8
44075;BME280;60448;44.956;7.660;2022-12-17T20:50:00;99610;;;12.7;60.8
44075;BME280;60448;44.956;7.660;2022-12-17T20:55:00;99610;;;12.7;60.8
44075;BME280;60448;44.956;7.660;2022-12-17T21:00:00;99650;;;12.7;60.8
44075;BME280;60448;44.956;7.660;2022-12-17T21:05:00;99650;;;12.7;60.8
44075;BME280;60448;44.956;7.660;2022-12-17T21:10:00;99650;;;12.7;60.8
44075;BME280;60448;44.956;7.660;2022-12-17T21:15:00;99690;;;12.8;60.8
44075;BME280;60448;44.956;7.660;2022-12-17T21:20:00;99690;;;12.7;60.8
44075;BME280;60448;44.956;7.660;2022-12-17T21:25:00;99690;;;12.7;60.8
44075;BME280;60448;44.956;7.660;2022-12-17T21:30:00;99690;;;12.7;60.8
44075;BME280;60448;44.956;7.660;2022-12-17T21:35:00;99740;;;12.8;60.7
44075;BME280;60448;44.956;7.660;2022-12-17T21:40:04;99740;;;12.8;60.7
44075;BME280;60448;44.956;7.660;2022-12-17T21:45:00;99740;;;12.8;60.7
44075;BME280;60448;44.956;7.660;2022-12-17T21:50:01;99760;;;12.7;60.8
44075;BME280;60448;44.956;7.660;2022-12-17T21:55:00;99760;;;12.7;60.8
44075;BME280;60448;44.956;7.660;2022-12-17T22:00:00;99760;;;12.7;60.8
44075;BME280;60448;44.956;7.660;2022-12-17T22:05:00;99810;;;12.7;60.7
44075;BME280;60448;44.956;7.660;2022-12-17T22:10:02;99810;;;12.7;60.7
44075;BME280;60448;44.956;7.660;2022-12-17T22:15:01;99810;;;12.7;60.7
44075;BME280;60448;44.956;7.660;2022-12-17T22:20:00;99830;;;12.7;60.7
44075;BME280;60448;44.956;7.660;2022-12-17T22:25:00;99830;;;12.7;60.7
44075;BME280;60448;44.956;7.660;2022-12-17T22:30:00;99830;;;12.7;60.7
44075;BME280;60448;44.956;7.660;2022-12-17T22:35:00;99860;;;12.7;60.4
44075;BME280;60448;44.956;7.660;2022-12-17T22:40:00;99860;;;12.7;60.4
44075;BME280;60448;44.956;7.660;2022-12-17T22:45:00;99860;;;12.7;60.4
44075;BME280;60448;44.956;7.660;2022-12-17T22:50:00;99860;;;12.7;60.1
44075;BME280;60448;44.956;7.660;2022-12-17T22:55:00;99860;;;12.7;60.1
44075;BME280;60448;44.956;7.660;2022-12-17T23:00:00;99860;;;12.7;60.1
44075;BME280;60448;44.956;7.660;2022-12-17T23:05:00;99890;;;12.8;59.8
44075;BME280;60448;44.956;7.660;2022-12-17T23:10:00;99890;;;12.7;59.9
44075;BME280;60448;44.956;7.660;2022-12-17T23:15:00;99890;;;12.7;59.9
44075;BME280;60448;44.956;7.660;2022-12-17T23:20:00;99890;;;12.7;59.9
44075;BME280;60448;44.956;7.660;2022-12-17T23:25:00;99910;;;12.7;59.7
44075;BME280;60448;44.956;7.660;2022-12-17T23:30:00;99910;;;12.7;59.7
44075;BME280;60448;44.956;7.660;2022-12-17T23:35:00;99910;;;12.7;59.7
44075;BME280;60448;44.956;7.660;2022-12-17T23:40:00;99910;;;12.7;59.7
44075;BME280;60448;44.956;7.660;2022-12-17T23:45:00;99910;;;12.7;59.7
44075;BME280;60448;44.956;7.660;2022-12-17T23:50:00;99910;;;12.7;59.7
44075;BME280;60448;44.956;7.660;2022-12-17T23:55:00;99910;;;12.7;59.7
